createdAt,value
2019-05-23T00:01:12.138Z,3.83
2019-05-23T00:04:00.324Z,3.33
2019-05-23T00:06:29.607Z,3.63
2019-05-23T00:09:00.634Z,3.20
2019-05-23T00:11:40.580Z,3.00
2019-05-23T00:14:22.594Z,3.20
2019-05-23T00:16:53.924Z,3.83
2019-05-23T00:19:23.807Z,3.47
2019-05-23T00:21:53.672Z,3.37
2019-05-23T00:24:23.943Z,3.30
2019-05-23T00:26:53.275Z,3.23
2019-05-23T00:29:22.575Z,3.30
2019-05-23T00:32:01.063Z,3.33
2019-05-23T00:34:31.683Z,3.00
2019-05-23T00:37:02.432Z,3.27
2019-05-23T00:39:31.910Z,3.30
2019-05-23T00:42:01.378Z,3.07
2019-05-23T00:44:30.515Z,2.80
2019-05-23T00:47:00.143Z,3.07
2019-05-23T00:49:29.513Z,2.97
2019-05-23T00:51:58.814Z,2.63
2019-05-23T00:54:28.266Z,3.30
2019-05-23T00:56:58.621Z,3.00
2019-05-23T00:59:28.088Z,3.23
2019-05-23T01:01:57.810Z,3.00
2019-05-23T01:04:27.878Z,3.10
2019-05-23T01:06:57.962Z,3.23
2019-05-23T01:09:27.592Z,3.00
2019-05-23T01:11:57.674Z,3.23
2019-05-23T01:14:27.249Z,3.50
2019-05-23T01:16:57.315Z,3.37
2019-05-23T01:19:27.214Z,3.17
2019-05-23T01:21:59.388Z,3.70
2019-05-23T01:24:31.838Z,3.20
2019-05-23T01:27:02.439Z,3.20
2019-05-23T01:29:37.754Z,3.13
2019-05-23T01:32:13.367Z,3.57
2019-05-23T01:34:44.089Z,3.70
2019-05-23T01:37:13.740Z,2.80
2019-05-23T01:39:43.314Z,3.20
2019-05-23T01:42:13.298Z,3.03
2019-05-23T01:44:42.675Z,3.37
2019-05-23T01:47:11.918Z,3.27
2019-05-23T01:49:41.854Z,3.40
2019-05-23T01:52:11.728Z,3.03
2019-05-23T01:54:41.087Z,2.70
2019-05-23T01:57:10.582Z,3.20
2019-05-23T01:59:40.259Z,2.90
2019-05-23T02:02:11.179Z,2.83
2019-05-23T02:04:40.542Z,2.83
2019-05-23T02:07:10.411Z,2.77
2019-05-23T02:09:39.751Z,3.17
2019-05-23T02:12:11.805Z,2.43
2019-05-23T02:14:44.488Z,3.37
2019-05-23T02:17:13.628Z,3.20
2019-05-23T02:19:43.419Z,2.73
2019-05-23T02:22:13.177Z,3.43
2019-05-23T02:24:43.699Z,2.60
2019-05-23T02:27:12.944Z,3.23
2019-05-23T02:29:42.862Z,3.17
2019-05-23T02:32:12.091Z,3.03
2019-05-23T02:34:41.766Z,3.00
2019-05-23T02:37:19.970Z,3.13
2019-05-23T02:39:58.520Z,2.67
2019-05-23T02:42:41.575Z,2.83
2019-05-23T02:45:15.456Z,3.07
2019-05-23T02:47:49.206Z,2.97
2019-05-23T02:50:43.379Z,3.60
2019-05-23T02:53:16.072Z,3.43
2019-05-23T02:55:46.364Z,3.27
2019-05-23T02:58:25.787Z,3.40
2019-05-23T03:01:36.076Z,3.17
2019-05-23T03:04:10.630Z,2.80
2019-05-23T03:06:41.055Z,3.27
2019-05-23T03:09:12.520Z,3.67
2019-05-23T03:11:45.470Z,3.13
2019-05-23T03:14:15.392Z,3.17
2019-05-23T03:16:48.116Z,3.07
2019-05-23T03:19:28.763Z,3.30
2019-05-23T03:22:05.687Z,3.30
2019-05-23T03:24:35.314Z,3.40
2019-05-23T03:27:09.762Z,3.00
2019-05-23T03:29:39.496Z,3.60
2019-05-23T03:32:26.371Z,3.40
2019-05-23T03:35:13.893Z,3.27
2019-05-23T03:37:43.033Z,3.07
2019-05-23T03:40:12.706Z,3.43
2019-05-23T03:42:42.541Z,3.37
2019-05-23T03:45:14.935Z,3.70
2019-05-23T03:47:45.853Z,3.43
2019-05-23T03:50:16.526Z,3.67
2019-05-23T03:52:46.034Z,3.73
2019-05-23T03:55:16.105Z,3.50
2019-05-23T03:57:45.773Z,3.80
2019-05-23T04:00:17.185Z,3.53
2019-05-23T04:02:46.604Z,3.90
2019-05-23T04:05:16.281Z,3.60
2019-05-23T04:07:45.589Z,3.37
2019-05-23T04:10:14.861Z,3.63
2019-05-23T04:12:44.219Z,3.37
2019-05-23T04:15:13.514Z,3.40
2019-05-23T04:17:42.890Z,3.60
2019-05-23T04:20:12.449Z,3.57
2019-05-23T04:22:41.772Z,4.20
2019-05-23T04:25:11.580Z,4.00
2019-05-23T04:27:40.972Z,3.60
2019-05-23T04:30:11.660Z,4.10
2019-05-23T04:32:40.955Z,4.80
2019-05-23T04:35:11.286Z,3.90
2019-05-23T04:37:40.653Z,4.40
2019-05-23T04:40:11.109Z,4.30
2019-05-23T04:42:40.464Z,4.43
2019-05-23T04:45:09.851Z,3.93
2019-05-23T04:47:40.659Z,4.47
2019-05-23T04:50:12.811Z,4.00
2019-05-23T04:52:43.212Z,4.50
2019-05-23T04:55:15.311Z,4.63
2019-05-23T04:57:48.179Z,4.40
2019-05-23T05:00:19.383Z,4.80
2019-05-23T05:02:48.900Z,4.50
2019-05-23T05:05:18.966Z,5.17
2019-05-23T05:07:48.467Z,4.73
2019-05-23T05:10:20.490Z,5.33
2019-05-23T05:12:53.449Z,4.53
2019-05-23T05:15:23.162Z,3.93
2019-05-23T05:17:52.442Z,5.00
2019-05-23T05:20:21.644Z,4.33
2019-05-23T05:22:51.058Z,4.10
2019-05-23T05:25:20.641Z,3.70
2019-05-23T05:27:50.259Z,3.70
2019-05-23T05:30:19.670Z,3.70
2019-05-23T05:32:49.590Z,3.50
2019-05-23T05:35:18.918Z,3.23
2019-05-23T05:37:48.150Z,3.43
2019-05-23T05:40:17.519Z,3.50
2019-05-23T05:42:47.363Z,3.57
2019-05-23T05:45:16.795Z,3.10
2019-05-23T05:47:46.211Z,2.77
2019-05-23T05:50:15.975Z,3.53
2019-05-23T05:52:45.413Z,3.30
2019-05-23T05:55:14.823Z,3.33
2019-05-23T05:57:44.132Z,3.00
2019-05-23T06:00:42.355Z,3.20
2019-05-23T06:03:11.817Z,2.83
2019-05-23T06:06:00.074Z,3.07
2019-05-23T06:08:29.949Z,3.40
2019-05-23T06:10:59.012Z,2.70
2019-05-23T06:13:28.364Z,2.70
2019-05-23T06:15:57.699Z,2.87
2019-05-23T06:18:27.712Z,2.73
2019-05-23T06:20:56.883Z,3.10
2019-05-23T06:23:26.387Z,2.83
2019-05-23T06:25:55.551Z,3.00
2019-05-23T06:28:24.974Z,2.90
2019-05-23T06:30:54.275Z,2.87
2019-05-23T06:33:24.804Z,14.10
2019-05-23T06:35:54.072Z,3.00
2019-05-23T06:38:24.686Z,2.77
2019-05-23T06:40:54.625Z,2.83
2019-05-23T06:43:24.623Z,2.47
2019-05-23T06:45:53.794Z,2.50
2019-05-23T06:48:23.146Z,2.87
2019-05-23T06:50:52.295Z,2.50
2019-05-23T06:53:21.431Z,3.13
2019-05-23T06:55:50.582Z,2.23
2019-05-23T06:58:20.233Z,3.30
2019-05-23T07:00:49.829Z,2.83
2019-05-23T07:03:19.833Z,4.00
2019-05-23T07:05:49.130Z,2.97
2019-05-23T07:08:19.957Z,3.40
2019-05-23T07:10:49.110Z,2.70
2019-05-23T07:13:18.965Z,2.87
2019-05-23T07:15:48.215Z,2.63
2019-05-23T07:18:17.606Z,2.97
2019-05-23T07:20:46.790Z,2.90
2019-05-23T07:23:16.315Z,2.40
2019-05-23T07:25:45.475Z,2.40
2019-05-23T07:28:15.197Z,2.20
2019-05-23T07:30:44.794Z,2.00
2019-05-23T07:33:14.562Z,2.50
2019-05-23T07:35:43.713Z,2.57
2019-05-23T07:38:12.807Z,2.70
2019-05-23T07:40:42.354Z,2.23
2019-05-23T07:43:12.098Z,2.37
2019-05-23T07:45:57.806Z,2.00
2019-05-23T07:48:27.180Z,1.80
2019-05-23T07:50:56.242Z,2.47
2019-05-23T07:53:36.196Z,2.00
2019-05-23T07:56:06.979Z,2.30
2019-05-23T07:58:36.855Z,2.13
2019-05-23T08:01:08.188Z,2.07
2019-05-23T08:03:40.718Z,1.83
2019-05-23T08:06:10.331Z,2.13
2019-05-23T08:08:39.422Z,2.30
2019-05-23T08:11:08.526Z,2.17
2019-05-23T08:13:37.729Z,2.33
2019-05-23T08:16:07.083Z,2.53
2019-05-23T08:18:36.268Z,1.80
2019-05-23T08:21:05.667Z,1.97
2019-05-23T08:23:34.810Z,1.70
2019-05-23T08:26:04.239Z,2.00
2019-05-23T08:28:33.910Z,2.00
2019-05-23T08:31:07.126Z,2.00
2019-05-23T08:33:36.881Z,1.90
2019-05-23T08:36:06.666Z,1.80
2019-05-23T08:38:36.235Z,1.60
2019-05-23T08:41:06.790Z,2.07
2019-05-23T08:43:36.555Z,2.10
2019-05-23T08:46:06.756Z,1.97
2019-05-23T08:48:36.156Z,2.20
2019-05-23T08:51:05.562Z,3.03
2019-05-23T08:53:34.719Z,5.80
2019-05-23T08:56:18.444Z,2.70
2019-05-23T08:58:40.307Z,2.00
2019-05-23T09:01:10.204Z,2.40
2019-05-23T09:03:40.026Z,2.23
2019-05-23T09:06:11.128Z,2.37
2019-05-23T09:08:41.159Z,2.30
2019-05-23T09:11:11.152Z,2.50
2019-05-23T09:13:40.224Z,2.40
2019-05-23T09:16:09.681Z,2.30
2019-05-23T09:18:38.734Z,2.40
2019-05-23T09:21:08.210Z,1.83
2019-05-23T09:23:37.598Z,2.13
2019-05-23T09:26:06.708Z,2.17
2019-05-23T09:28:35.945Z,2.27
2019-05-23T09:31:05.687Z,2.07
2019-05-23T09:33:35.174Z,2.13
2019-05-23T09:36:04.823Z,2.07
2019-05-23T09:38:34.308Z,1.77
2019-05-23T09:41:03.493Z,1.83
2019-05-23T09:43:32.578Z,1.97
2019-05-23T09:46:01.677Z,2.30
2019-05-23T09:48:30.939Z,2.10
2019-05-23T09:51:00.012Z,2.13
2019-05-23T09:53:29.432Z,1.97
2019-05-23T09:55:58.524Z,1.80
2019-05-23T09:58:27.605Z,1.80
2019-05-23T10:00:57.278Z,1.53
2019-05-23T10:03:26.720Z,1.80
2019-05-23T10:05:56.045Z,1.60
2019-05-23T10:08:25.124Z,1.83
2019-05-23T10:10:54.472Z,1.50
2019-05-23T10:13:37.694Z,1.23
2019-05-23T10:16:06.155Z,1.30
2019-05-23T10:18:35.624Z,1.50
2019-05-23T10:21:05.443Z,1.33
2019-05-23T10:23:34.919Z,1.97
2019-05-23T10:26:05.085Z,1.50
2019-05-23T10:28:34.182Z,1.83
2019-05-23T10:31:04.642Z,1.77
2019-05-23T10:33:33.983Z,2.77
2019-05-23T10:36:03.396Z,2.07
2019-05-23T10:38:33.001Z,2.63
2019-05-23T10:41:02.225Z,1.50
2019-05-23T10:43:31.674Z,1.70
2019-05-23T10:46:01.011Z,2.47
2019-05-23T10:48:30.535Z,1.83
2019-05-23T10:51:00.194Z,2.00
2019-05-23T10:53:29.726Z,2.20
2019-05-23T10:55:59.075Z,2.50
2019-05-23T10:58:28.737Z,2.20
2019-05-23T11:00:57.835Z,2.20
2019-05-23T11:03:31.241Z,1.93
2019-05-23T11:06:15.072Z,2.07
2019-05-23T11:08:31.881Z,2.10
2019-05-23T11:11:01.181Z,1.80
2019-05-23T11:13:30.386Z,2.27
2019-05-23T11:15:59.753Z,2.27
2019-05-23T11:18:29.164Z,2.13
2019-05-23T11:20:58.274Z,1.90
2019-05-23T11:23:33.787Z,1.90
2019-05-23T11:26:03.539Z,2.03
2019-05-23T11:28:35.199Z,1.90
2019-05-23T11:31:05.861Z,1.93
2019-05-23T11:33:34.959Z,2.03
2019-05-23T11:36:04.308Z,2.10
2019-05-23T11:38:33.690Z,1.90
2019-05-23T11:41:03.063Z,2.10
2019-05-23T11:43:32.618Z,2.03
2019-05-23T11:46:19.468Z,2.20
2019-05-23T11:48:49.205Z,2.00
2019-05-23T11:51:19.008Z,2.20
2019-05-23T11:54:06.078Z,2.20
2019-05-23T11:56:19.492Z,3.43
2019-05-23T11:58:48.800Z,8.10
2019-05-23T12:01:28.872Z,3.90
2019-05-23T12:04:02.162Z,1.90
2019-05-23T12:06:53.551Z,2.37
2019-05-23T12:09:09.245Z,2.50
2019-05-23T12:11:42.441Z,2.60
2019-05-23T12:14:09.379Z,2.20
2019-05-23T12:16:38.863Z,2.60
2019-05-23T12:19:08.498Z,3.80
2019-05-23T12:21:37.957Z,4.07
2019-05-23T12:24:07.013Z,3.27
2019-05-23T12:26:36.315Z,4.20
2019-05-23T12:29:07.759Z,2.40
2019-05-23T12:31:37.058Z,2.50
2019-05-23T12:34:06.182Z,2.20
2019-05-23T12:36:35.534Z,2.57
2019-05-23T12:39:06.872Z,2.70
2019-05-23T12:41:36.205Z,2.03
2019-05-23T12:44:05.860Z,2.17
2019-05-23T12:46:34.951Z,2.30
2019-05-23T12:49:35.688Z,6.73
2019-05-23T12:52:06.531Z,2.37
2019-05-23T12:54:35.631Z,2.10
2019-05-23T12:57:05.840Z,3.13
2019-05-23T12:59:34.999Z,1.70
2019-05-23T13:02:05.698Z,2.63
2019-05-23T13:04:34.897Z,1.57
2019-05-23T13:07:04.389Z,1.30
2019-05-23T13:09:35.162Z,1.40
2019-05-23T13:12:04.302Z,1.30
2019-05-23T13:14:33.710Z,1.50
2019-05-23T13:17:02.927Z,1.60
2019-05-23T13:19:32.188Z,1.50
2019-05-23T13:22:01.575Z,1.40
2019-05-23T13:24:50.726Z,1.80
2019-05-23T13:27:01.666Z,1.43
2019-05-23T13:29:30.901Z,1.33
2019-05-23T13:32:00.077Z,1.20
2019-05-23T13:34:29.575Z,1.30
2019-05-23T13:36:58.883Z,1.10
2019-05-23T13:39:28.058Z,1.40
2019-05-23T13:41:57.210Z,1.17
2019-05-23T13:44:33.380Z,1.10
2019-05-23T13:46:57.412Z,1.47
2019-05-23T13:49:26.635Z,1.20
2019-05-23T13:51:55.904Z,1.13
2019-05-23T13:54:25.269Z,2.47
2019-05-23T13:56:54.938Z,1.13
2019-05-23T13:59:24.012Z,1.37
2019-05-23T14:01:53.755Z,1.10
2019-05-23T14:04:22.843Z,1.50
2019-05-23T14:06:52.176Z,1.00
2019-05-23T14:09:23.336Z,0.97
2019-05-23T14:12:19.541Z,1.00
2019-05-23T14:14:23.528Z,1.17
2019-05-23T14:17:10.420Z,1.17
2019-05-23T14:19:40.175Z,1.20
2019-05-23T14:22:12.982Z,1.20
2019-05-23T14:24:42.102Z,1.10
2019-05-23T14:27:27.465Z,1.23
2019-05-23T14:29:56.647Z,1.40
2019-05-23T14:32:50.659Z,1.40
2019-05-23T14:35:24.225Z,1.23
2019-05-23T14:37:54.990Z,1.50
2019-05-23T14:40:24.769Z,2.00
2019-05-23T14:43:11.569Z,1.30
2019-05-23T14:45:46.246Z,1.40
2019-05-23T14:48:23.698Z,1.40
2019-05-23T14:51:06.949Z,1.47
2019-05-23T14:53:37.681Z,1.63
2019-05-23T14:56:06.982Z,1.30
2019-05-23T14:58:36.731Z,1.40
2019-05-23T15:01:06.932Z,1.40
2019-05-23T15:03:36.156Z,1.30
2019-05-23T15:06:05.632Z,1.50
2019-05-23T15:08:50.596Z,1.23
2019-05-23T15:11:06.220Z,1.30
2019-05-23T15:13:35.709Z,1.50
2019-05-23T15:16:06.632Z,2.13
2019-05-23T15:18:35.755Z,2.20
2019-05-23T15:21:05.268Z,2.27
2019-05-23T15:23:34.359Z,3.10
2019-05-23T15:26:19.662Z,3.80
2019-05-23T15:28:34.512Z,1.70
2019-05-23T15:31:04.200Z,6.93
2019-05-23T15:33:34.807Z,1.87
2019-05-23T15:36:04.459Z,1.97
2019-05-23T15:38:34.003Z,1.80
2019-05-23T15:41:03.105Z,2.87
2019-05-23T15:43:32.559Z,1.50
2019-05-23T15:46:01.647Z,1.93
2019-05-23T15:48:31.294Z,3.20
2019-05-23T15:51:00.707Z,1.77
2019-05-23T15:53:47.240Z,1.33
2019-05-23T15:56:31.822Z,1.30
2019-05-23T15:59:20.033Z,1.60
2019-05-23T16:01:58.239Z,1.50
2019-05-23T16:04:27.746Z,1.27
2019-05-23T16:06:57.010Z,1.47
2019-05-23T16:09:30.280Z,1.10
2019-05-23T16:11:58.236Z,1.40
2019-05-23T16:14:27.788Z,1.53
2019-05-23T16:16:57.594Z,1.37
2019-05-23T16:19:27.172Z,1.40
2019-05-23T16:21:56.335Z,1.33
2019-05-23T16:24:26.170Z,1.63
2019-05-23T16:26:55.426Z,1.70
2019-05-23T16:29:24.799Z,1.60
2019-05-23T16:31:53.964Z,1.60
2019-05-23T16:34:23.808Z,1.40
2019-05-23T16:36:53.176Z,1.60
2019-05-23T16:39:26.311Z,1.60
2019-05-23T16:41:55.912Z,1.80
2019-05-23T16:44:25.004Z,1.90
2019-05-23T16:46:54.785Z,1.20
2019-05-23T16:49:23.835Z,1.40
2019-05-23T16:51:52.934Z,1.80
2019-05-23T16:54:28.955Z,3.80
2019-05-23T16:57:06.013Z,1.70
2019-05-23T16:59:40.070Z,1.60
2019-05-23T17:02:21.034Z,2.40
2019-05-23T17:05:10.544Z,7.40
2019-05-23T17:07:56.332Z,1.70
2019-05-23T17:10:48.886Z,5.53
2019-05-23T17:13:28.854Z,4.10
2019-05-23T17:16:15.612Z,1.57
2019-05-23T17:18:56.240Z,2.37
2019-05-23T17:21:42.893Z,1.70
2019-05-23T17:24:34.140Z,1.80
2019-05-23T17:27:22.587Z,1.40
2019-05-23T17:29:56.099Z,1.20
2019-05-23T17:32:29.941Z,1.70
2019-05-23T17:34:59.342Z,1.70
2019-05-23T17:37:29.047Z,1.80
2019-05-23T17:40:02.200Z,2.17
2019-05-23T17:42:31.412Z,1.33
2019-05-23T17:45:00.482Z,1.17
2019-05-23T17:47:30.291Z,1.53
2019-05-23T17:49:59.393Z,1.40
2019-05-23T17:52:28.566Z,1.90
2019-05-23T17:54:59.574Z,1.27
2019-05-23T17:57:29.596Z,2.00
2019-05-23T17:59:58.849Z,1.97
2019-05-23T18:02:28.493Z,2.70
2019-05-23T18:04:57.895Z,2.00
2019-05-23T18:07:27.826Z,2.30
2019-05-23T18:09:57.455Z,1.77
2019-05-23T18:12:26.707Z,2.23
2019-05-23T18:14:55.847Z,1.83
2019-05-23T18:17:25.486Z,1.70
2019-05-23T18:19:55.419Z,2.30
2019-05-23T18:22:25.178Z,2.50
2019-05-23T18:24:59.054Z,2.77
2019-05-23T18:27:26.104Z,2.90
2019-05-23T18:29:55.623Z,3.60
2019-05-23T18:32:27.153Z,3.13
2019-05-23T18:34:56.479Z,3.33
2019-05-23T18:37:25.555Z,3.20
2019-05-23T18:39:54.618Z,2.93
2019-05-23T18:42:23.989Z,4.67
2019-05-23T18:44:53.519Z,3.33
2019-05-23T18:47:34.069Z,3.13
2019-05-23T18:50:03.284Z,2.80
2019-05-23T18:52:33.456Z,2.53
2019-05-23T18:55:02.760Z,2.20
2019-05-23T18:57:32.365Z,2.30
2019-05-23T19:00:01.576Z,2.90
2019-05-23T19:02:30.818Z,2.47
2019-05-23T19:05:00.099Z,2.60
2019-05-23T19:07:29.238Z,2.30
2019-05-23T19:09:58.363Z,2.10
2019-05-23T19:12:27.664Z,2.50
2019-05-23T19:14:56.784Z,2.70
2019-05-23T19:17:25.877Z,2.67
2019-05-23T19:19:55.231Z,2.60
2019-05-23T19:22:24.338Z,2.20
2019-05-23T19:24:54.490Z,2.53
2019-05-23T19:27:23.900Z,2.20
2019-05-23T19:29:53.674Z,2.23
2019-05-23T19:32:23.141Z,2.30
2019-05-23T19:34:52.583Z,3.07
2019-05-23T19:37:21.983Z,2.70
2019-05-23T19:39:51.153Z,2.50
2019-05-23T19:42:20.926Z,2.80
2019-05-23T19:44:50.051Z,2.27
2019-05-23T19:47:19.650Z,3.07
2019-05-23T19:49:48.976Z,2.93
2019-05-23T19:52:18.149Z,2.70
2019-05-23T19:54:47.510Z,2.90
2019-05-23T19:57:20.043Z,2.90
2019-05-23T19:59:49.435Z,2.73
2019-05-23T20:02:28.203Z,3.10
2019-05-23T20:05:06.796Z,3.23
2019-05-23T20:07:35.990Z,3.23
2019-05-23T20:10:06.156Z,2.90
2019-05-23T20:12:38.074Z,3.00
2019-05-23T20:15:07.418Z,3.63
2019-05-23T20:17:36.589Z,3.33
2019-05-23T20:20:05.944Z,3.27
2019-05-23T20:22:35.044Z,3.00
2019-05-23T20:25:04.660Z,3.70
2019-05-23T20:27:34.056Z,2.97
2019-05-23T20:30:03.995Z,4.10
2019-05-23T20:32:33.249Z,3.47
2019-05-23T20:35:02.331Z,3.77
2019-05-23T20:37:35.153Z,3.30
2019-05-23T20:40:02.555Z,3.67
2019-05-23T20:42:31.744Z,3.80
2019-05-23T20:45:00.924Z,4.50
2019-05-23T20:47:30.756Z,4.53
2019-05-23T20:49:59.945Z,3.67
2019-05-23T20:52:29.131Z,3.33
2019-05-23T20:54:58.203Z,4.30
2019-05-23T20:57:27.279Z,4.07
2019-05-23T20:59:56.459Z,3.77
2019-05-23T21:02:25.853Z,3.90
2019-05-23T21:04:55.287Z,4.27
2019-05-23T21:07:24.393Z,4.10
2019-05-23T21:09:53.752Z,4.77
2019-05-23T21:12:29.980Z,4.87
2019-05-23T21:14:54.197Z,4.30
2019-05-23T21:17:24.159Z,4.03
2019-05-23T21:19:53.547Z,4.83
2019-05-23T21:22:22.724Z,4.03
2019-05-23T21:24:51.862Z,4.10
2019-05-23T21:27:21.343Z,4.13
2019-05-23T21:29:50.437Z,4.47
2019-05-23T21:32:19.638Z,3.60
2019-05-23T21:34:48.818Z,4.40
2019-05-23T21:37:18.162Z,3.90
2019-05-23T21:39:47.234Z,4.70
2019-05-23T21:42:16.331Z,3.80
2019-05-23T21:44:45.406Z,4.40
2019-05-23T21:47:14.825Z,4.37
2019-05-23T21:49:43.936Z,4.23
2019-05-23T21:52:13.383Z,4.07
2019-05-23T21:54:42.440Z,4.23
2019-05-23T21:57:11.597Z,3.77
2019-05-23T21:59:40.709Z,4.10
2019-05-23T22:02:24.298Z,4.03
2019-05-23T22:05:15.258Z,3.70
2019-05-23T22:07:45.379Z,3.43
2019-05-23T22:10:14.521Z,3.63
2019-05-23T22:12:44.166Z,4.07
2019-05-23T22:15:17.138Z,3.77
2019-05-23T22:17:46.529Z,3.50
2019-05-23T22:20:15.603Z,3.70
2019-05-23T22:22:44.722Z,4.30
2019-05-23T22:25:17.507Z,3.60
2019-05-23T22:27:47.199Z,3.70
2019-05-23T22:30:16.439Z,4.20
2019-05-23T22:32:46.098Z,4.07
2019-05-23T22:35:18.810Z,3.67
2019-05-23T22:37:47.890Z,3.77
2019-05-23T22:40:17.134Z,3.40
2019-05-23T22:42:46.308Z,4.10
2019-05-23T22:45:17.471Z,4.17
2019-05-23T22:47:46.538Z,3.90
2019-05-23T22:50:15.718Z,3.57
2019-05-23T22:52:44.874Z,3.70
2019-05-23T22:55:14.228Z,3.37
2019-05-23T22:57:43.522Z,4.00
2019-05-23T23:00:14.994Z,4.00
2019-05-23T23:02:46.072Z,4.07
2019-05-23T23:05:15.355Z,3.83
2019-05-23T23:07:44.807Z,4.03
2019-05-23T23:10:14.340Z,4.43
2019-05-23T23:12:43.418Z,3.60
2019-05-23T23:15:13.047Z,3.93
2019-05-23T23:17:42.131Z,4.60
2019-05-23T23:20:11.566Z,4.80
2019-05-23T23:22:40.676Z,4.40
2019-05-23T23:25:09.755Z,4.17
2019-05-23T23:27:38.811Z,4.00
2019-05-23T23:30:08.809Z,4.20
2019-05-23T23:32:37.908Z,4.03
2019-05-23T23:35:07.658Z,4.40
2019-05-23T23:37:37.017Z,4.23
2019-05-23T23:40:06.454Z,4.00
2019-05-23T23:42:35.831Z,4.00
2019-05-23T23:45:22.827Z,4.73
2019-05-23T23:48:09.571Z,4.10
2019-05-23T23:50:56.530Z,4.40
2019-05-23T23:53:43.281Z,4.60
2019-05-23T23:56:30.343Z,4.00
2019-05-23T23:58:58.565Z,3.67
